sensor_id;sensor_type;location;lat;lon;timestamp;temperature;humidity
10443;DHT22;5269;51.146;16.986;2023-10-09T00:02:43;8.70;99.90
10443;DHT22;5269;51.146;16.986;2023-10-09T00:05:10;8.60;1.00
10443;DHT22;5269;51.146;16.986;2023-10-09T00:07:45;8.60;1.00
10443;DHT22;5269;51.146;16.986;2023-10-09T00:10:12;8.70;1.00
10443;DHT22;5269;51.146;16.986;2023-10-09T00:12:40;8.70;1.00
10443;DHT22;5269;51.146;16.986;2023-10-09T00:15:09;8.80;19.70
10443;DHT22;5269;51.146;16.986;2023-10-09T00:17:39;8.80;1.00
10443;DHT22;5269;51.146;16.986;2023-10-09T00:22:43;8.60;99.90
10443;DHT22;5269;51.146;16.986;2023-10-09T00:25:12;8.50;1.00
10443;DHT22;5269;51.146;16.986;2023-10-09T00:27:50;8.50;1.00
10443;DHT22;5269;51.146;16.986;2023-10-09T00:30:17;8.40;99.90
10443;DHT22;5269;51.146;16.986;2023-10-09T00:32:47;8.50;1.00
10443;DHT22;5269;51.146;16.986;2023-10-09T00:35:25;8.50;1.00
10443;DHT22;5269;51.146;16.986;2023-10-09T00:38:03;8.40;99.90
10443;DHT22;5269;51.146;16.986;2023-10-09T00:40:39;8.40;1.00
10443;DHT22;5269;51.146;16.986;2023-10-09T00:43:12;8.40;99.90
10443;DHT22;5269;51.146;16.986;2023-10-09T00:45:40;8.50;99.90
10443;DHT22;5269;51.146;16.986;2023-10-09T00:48:09;8.40;99.90
10443;DHT22;5269;51.146;16.986;2023-10-09T00:50:40;8.30;99.90
10443;DHT22;5269;51.146;16.986;2023-10-09T00:53:14;8.30;99.90
10443;DHT22;5269;51.146;16.986;2023-10-09T00:55:44;8.30;99.90
10443;DHT22;5269;51.146;16.986;2023-10-09T00:58:22;8.30;99.90
10443;DHT22;5269;51.146;16.986;2023-10-09T01:00:52;8.40;99.90
10443;DHT22;5269;51.146;16.986;2023-10-09T01:03:20;8.40;99.90
10443;DHT22;5269;51.146;16.986;2023-10-09T01:05:51;8.40;99.90
10443;DHT22;5269;51.146;16.986;2023-10-09T01:08:23;8.30;99.90
10443;DHT22;5269;51.146;16.986;2023-10-09T01:10:56;8.30;99.90
10443;DHT22;5269;51.146;16.986;2023-10-09T01:13:36;8.20;99.90
10443;DHT22;5269;51.146;16.986;2023-10-09T01:16:20;8.20;99.90
10443;DHT22;5269;51.146;16.986;2023-10-09T01:18:49;8.20;99.90
10443;DHT22;5269;51.146;16.986;2023-10-09T01:21:17;8.20;99.90
10443;DHT22;5269;51.146;16.986;2023-10-09T01:23:47;8.20;99.90
10443;DHT22;5269;51.146;16.986;2023-10-09T01:26:29;8.20;99.90
10443;DHT22;5269;51.146;16.986;2023-10-09T01:29:00;8.10;99.90
10443;DHT22;5269;51.146;16.986;2023-10-09T01:31:27;8.10;99.90
10443;DHT22;5269;51.146;16.986;2023-10-09T01:34:03;8.10;99.90
10443;DHT22;5269;51.146;16.986;2023-10-09T01:36:35;8.10;99.90
10443;DHT22;5269;51.146;16.986;2023-10-09T01:39:06;8.10;99.90
10443;DHT22;5269;51.146;16.986;2023-10-09T01:41:38;8.20;99.90
10443;DHT22;5269;51.146;16.986;2023-10-09T01:44:12;8.30;99.90
10443;DHT22;5269;51.146;16.986;2023-10-09T01:46:41;8.30;99.90
10443;DHT22;5269;51.146;16.986;2023-10-09T01:49:08;8.30;99.90
10443;DHT22;5269;51.146;16.986;2023-10-09T01:51:43;8.40;99.90
10443;DHT22;5269;51.146;16.986;2023-10-09T01:54:11;8.40;99.90
10443;DHT22;5269;51.146;16.986;2023-10-09T01:56:58;8.40;99.90
10443;DHT22;5269;51.146;16.986;2023-10-09T01:59:31;8.50;99.90
10443;DHT22;5269;51.146;16.986;2023-10-09T02:01:58;8.50;99.90
10443;DHT22;5269;51.146;16.986;2023-10-09T02:04:31;8.50;99.90
10443;DHT22;5269;51.146;16.986;2023-10-09T02:06:58;8.50;99.90
10443;DHT22;5269;51.146;16.986;2023-10-09T02:09:33;8.50;99.90
10443;DHT22;5269;51.146;16.986;2023-10-09T02:12:01;8.60;99.90
10443;DHT22;5269;51.146;16.986;2023-10-09T02:14:28;8.60;99.90
10443;DHT22;5269;51.146;16.986;2023-10-09T02:16:55;8.60;99.90
10443;DHT22;5269;51.146;16.986;2023-10-09T02:19:34;8.60;99.90
10443;DHT22;5269;51.146;16.986;2023-10-09T02:22:02;8.50;99.90
10443;DHT22;5269;51.146;16.986;2023-10-09T02:24:39;8.50;99.90
10443;DHT22;5269;51.146;16.986;2023-10-09T02:27:17;8.60;99.90
10443;DHT22;5269;51.146;16.986;2023-10-09T02:30:06;8.60;99.90
10443;DHT22;5269;51.146;16.986;2023-10-09T02:32:53;8.50;99.90
10443;DHT22;5269;51.146;16.986;2023-10-09T02:35:24;8.50;99.90
10443;DHT22;5269;51.146;16.986;2023-10-09T02:38:05;8.50;99.90
10443;DHT22;5269;51.146;16.986;2023-10-09T02:40:41;8.50;99.90
10443;DHT22;5269;51.146;16.986;2023-10-09T02:43:29;8.50;99.90
10443;DHT22;5269;51.146;16.986;2023-10-09T02:46:06;8.50;99.90
10443;DHT22;5269;51.146;16.986;2023-10-09T02:48:40;8.50;99.90
10443;DHT22;5269;51.146;16.986;2023-10-09T02:51:12;8.70;1.00
10443;DHT22;5269;51.146;16.986;2023-10-09T02:53:47;8.70;1.00
10443;DHT22;5269;51.146;16.986;2023-10-09T02:56:18;8.70;1.00
10443;DHT22;5269;51.146;16.986;2023-10-09T02:58:50;8.80;1.00
10443;DHT22;5269;51.146;16.986;2023-10-09T03:01:17;8.70;99.90
10443;DHT22;5269;51.146;16.986;2023-10-09T03:03:43;8.80;1.00
10443;DHT22;5269;51.146;16.986;2023-10-09T03:06:11;8.80;99.90
10443;DHT22;5269;51.146;16.986;2023-10-09T03:08:38;8.80;99.90
10443;DHT22;5269;51.146;16.986;2023-10-09T03:11:07;8.70;99.90
10443;DHT22;5269;51.146;16.986;2023-10-09T03:13:41;8.80;1.00
10443;DHT22;5269;51.146;16.986;2023-10-09T03:16:10;8.80;1.00
10443;DHT22;5269;51.146;16.986;2023-10-09T03:18:40;8.70;1.00
10443;DHT22;5269;51.146;16.986;2023-10-09T03:21:07;8.70;99.90
10443;DHT22;5269;51.146;16.986;2023-10-09T03:23:35;8.70;99.90
10443;DHT22;5269;51.146;16.986;2023-10-09T03:26:02;8.70;99.90
10443;DHT22;5269;51.146;16.986;2023-10-09T03:28:29;8.70;99.90
10443;DHT22;5269;51.146;16.986;2023-10-09T03:30:57;8.70;99.90
10443;DHT22;5269;51.146;16.986;2023-10-09T03:33:28;8.70;99.90
10443;DHT22;5269;51.146;16.986;2023-10-09T03:35:58;8.60;99.90
10443;DHT22;5269;51.146;16.986;2023-10-09T03:38:25;8.60;99.90
10443;DHT22;5269;51.146;16.986;2023-10-09T03:40:55;8.50;99.90
10443;DHT22;5269;51.146;16.986;2023-10-09T03:43:21;8.40;99.90
10443;DHT22;5269;51.146;16.986;2023-10-09T03:45:49;8.40;99.90
10443;DHT22;5269;51.146;16.986;2023-10-09T03:48:20;8.40;99.90
10443;DHT22;5269;51.146;16.986;2023-10-09T03:50:51;8.40;99.90
10443;DHT22;5269;51.146;16.986;2023-10-09T03:53:34;8.40;99.90
10443;DHT22;5269;51.146;16.986;2023-10-09T03:56:02;8.40;99.90
10443;DHT22;5269;51.146;16.986;2023-10-09T03:58:31;8.30;99.90
10443;DHT22;5269;51.146;16.986;2023-10-09T04:01:00;8.40;99.90
10443;DHT22;5269;51.146;16.986;2023-10-09T04:03:36;8.40;99.90
10443;DHT22;5269;51.146;16.986;2023-10-09T04:06:04;8.40;99.90
10443;DHT22;5269;51.146;16.986;2023-10-09T04:08:34;8.40;99.90
10443;DHT22;5269;51.146;16.986;2023-10-09T04:11:01;8.40;99.90
10443;DHT22;5269;51.146;16.986;2023-10-09T04:13:31;8.40;99.90
10443;DHT22;5269;51.146;16.986;2023-10-09T04:16:02;8.30;99.90
10443;DHT22;5269;51.146;16.986;2023-10-09T04:18:37;8.40;99.90
10443;DHT22;5269;51.146;16.986;2023-10-09T04:21:05;8.40;99.90
10443;DHT22;5269;51.146;16.986;2023-10-09T04:24:00;8.30;99.90
10443;DHT22;5269;51.146;16.986;2023-10-09T04:26:51;8.30;99.90
10443;DHT22;5269;51.146;16.986;2023-10-09T04:29:23;8.10;99.90
10443;DHT22;5269;51.146;16.986;2023-10-09T04:31:53;8.20;99.90
10443;DHT22;5269;51.146;16.986;2023-10-09T04:34:22;8.20;99.90
10443;DHT22;5269;51.146;16.986;2023-10-09T04:36:48;8.10;99.90
10443;DHT22;5269;51.146;16.986;2023-10-09T04:39:17;8.30;99.90
10443;DHT22;5269;51.146;16.986;2023-10-09T04:41:58;8.20;99.90
10443;DHT22;5269;51.146;16.986;2023-10-09T04:44:40;8.10;99.90
10443;DHT22;5269;51.146;16.986;2023-10-09T04:47:25;8.10;99.90
10443;DHT22;5269;51.146;16.986;2023-10-09T04:50:03;8.00;99.90
10443;DHT22;5269;51.146;16.986;2023-10-09T04:52:37;8.00;99.90
10443;DHT22;5269;51.146;16.986;2023-10-09T04:55:19;8.00;99.90
10443;DHT22;5269;51.146;16.986;2023-10-09T04:57:50;7.90;99.90
10443;DHT22;5269;51.146;16.986;2023-10-09T05:00:39;8.00;99.90
10443;DHT22;5269;51.146;16.986;2023-10-09T05:03:28;8.00;99.90
10443;DHT22;5269;51.146;16.986;2023-10-09T05:06:10;7.90;99.90
10443;DHT22;5269;51.146;16.986;2023-10-09T05:08:54;7.90;99.90
10443;DHT22;5269;51.146;16.986;2023-10-09T05:11:33;8.10;99.90
10443;DHT22;5269;51.146;16.986;2023-10-09T05:14:17;8.10;99.90
10443;DHT22;5269;51.146;16.986;2023-10-09T05:16:53;8.00;99.90
10443;DHT22;5269;51.146;16.986;2023-10-09T05:19:27;8.10;99.90
10443;DHT22;5269;51.146;16.986;2023-10-09T05:22:09;8.10;99.90
10443;DHT22;5269;51.146;16.986;2023-10-09T05:24:42;8.10;99.90
10443;DHT22;5269;51.146;16.986;2023-10-09T05:27:13;8.10;99.90
10443;DHT22;5269;51.146;16.986;2023-10-09T05:29:44;8.10;99.90
10443;DHT22;5269;51.146;16.986;2023-10-09T05:32:38;8.00;99.90
10443;DHT22;5269;51.146;16.986;2023-10-09T05:35:14;8.00;99.90
10443;DHT22;5269;51.146;16.986;2023-10-09T05:37:42;8.00;99.90
10443;DHT22;5269;51.146;16.986;2023-10-09T05:40:14;8.00;99.90
10443;DHT22;5269;51.146;16.986;2023-10-09T05:42:49;8.00;99.90
10443;DHT22;5269;51.146;16.986;2023-10-09T05:45:26;8.00;99.90
10443;DHT22;5269;51.146;16.986;2023-10-09T05:48:15;8.00;99.90
10443;DHT22;5269;51.146;16.986;2023-10-09T05:51:00;8.00;99.90
10443;DHT22;5269;51.146;16.986;2023-10-09T05:54:00;8.00;99.90
10443;DHT22;5269;51.146;16.986;2023-10-09T05:56:43;7.90;99.90
10443;DHT22;5269;51.146;16.986;2023-10-09T05:59:28;7.90;99.90
10443;DHT22;5269;51.146;16.986;2023-10-09T06:02:12;7.90;99.90
10443;DHT22;5269;51.146;16.986;2023-10-09T06:05:08;8.00;99.90
10443;DHT22;5269;51.146;16.986;2023-10-09T06:08:06;7.90;99.90
10443;DHT22;5269;51.146;16.986;2023-10-09T06:10:35;7.90;99.90
10443;DHT22;5269;51.146;16.986;2023-10-09T06:13:10;7.90;99.90
10443;DHT22;5269;51.146;16.986;2023-10-09T06:15:59;7.90;99.90
10443;DHT22;5269;51.146;16.986;2023-10-09T06:18:44;7.90;99.90
10443;DHT22;5269;51.146;16.986;2023-10-09T06:21:20;7.90;99.90
10443;DHT22;5269;51.146;16.986;2023-10-09T06:24:00;7.90;99.90
10443;DHT22;5269;51.146;16.986;2023-10-09T06:26:42;7.90;99.90
10443;DHT22;5269;51.146;16.986;2023-10-09T06:29:19;8.00;99.90
10443;DHT22;5269;51.146;16.986;2023-10-09T06:32:03;8.00;99.90
10443;DHT22;5269;51.146;16.986;2023-10-09T06:35:00;8.10;99.90
10443;DHT22;5269;51.146;16.986;2023-10-09T06:37:41;8.10;99.90
10443;DHT22;5269;51.146;16.986;2023-10-09T06:40:30;8.20;99.90
10443;DHT22;5269;51.146;16.986;2023-10-09T06:43:16;8.20;99.90
10443;DHT22;5269;51.146;16.986;2023-10-09T06:45:53;8.10;99.90
10443;DHT22;5269;51.146;16.986;2023-10-09T06:48:21;8.20;99.90
10443;DHT22;5269;51.146;16.986;2023-10-09T06:51:07;8.30;99.90
10443;DHT22;5269;51.146;16.986;2023-10-09T06:53:39;8.30;99.90
10443;DHT22;5269;51.146;16.986;2023-10-09T06:56:24;8.40;99.90
10443;DHT22;5269;51.146;16.986;2023-10-09T06:59:14;8.30;99.90
10443;DHT22;5269;51.146;16.986;2023-10-09T07:01:46;8.30;99.90
10443;DHT22;5269;51.146;16.986;2023-10-09T07:04:33;8.30;99.90
10443;DHT22;5269;51.146;16.986;2023-10-09T07:07:11;8.30;99.90
10443;DHT22;5269;51.146;16.986;2023-10-09T07:09:42;8.20;99.90
10443;DHT22;5269;51.146;16.986;2023-10-09T07:12:08;8.30;99.90
10443;DHT22;5269;51.146;16.986;2023-10-09T07:14:41;8.30;99.90
10443;DHT22;5269;51.146;16.986;2023-10-09T07:17:22;8.40;99.90
10443;DHT22;5269;51.146;16.986;2023-10-09T07:19:53;8.40;99.90
10443;DHT22;5269;51.146;16.986;2023-10-09T07:22:35;8.40;99.90
10443;DHT22;5269;51.146;16.986;2023-10-09T07:25:20;8.40;99.90
10443;DHT22;5269;51.146;16.986;2023-10-09T07:28:09;8.40;99.90
10443;DHT22;5269;51.146;16.986;2023-10-09T07:30:56;8.40;99.90
10443;DHT22;5269;51.146;16.986;2023-10-09T07:33:24;8.40;99.90
10443;DHT22;5269;51.146;16.986;2023-10-09T07:36:16;8.40;99.90
10443;DHT22;5269;51.146;16.986;2023-10-09T07:38:55;8.50;99.90
10443;DHT22;5269;51.146;16.986;2023-10-09T07:41:30;8.50;99.90
10443;DHT22;5269;51.146;16.986;2023-10-09T07:44:06;8.50;99.90
10443;DHT22;5269;51.146;16.986;2023-10-09T07:46:53;8.50;99.90
10443;DHT22;5269;51.146;16.986;2023-10-09T07:49:39;8.50;99.90
10443;DHT22;5269;51.146;16.986;2023-10-09T07:52:04;8.40;99.90
10443;DHT22;5269;51.146;16.986;2023-10-09T07:54:32;8.40;99.90
10443;DHT22;5269;51.146;16.986;2023-10-09T07:56:59;8.40;99.90
10443;DHT22;5269;51.146;16.986;2023-10-09T07:59:34;8.40;99.90
10443;DHT22;5269;51.146;16.986;2023-10-09T08:02:08;8.50;99.90
10443;DHT22;5269;51.146;16.986;2023-10-09T08:04:39;8.60;99.90
10443;DHT22;5269;51.146;16.986;2023-10-09T08:07:15;8.60;99.90
10443;DHT22;5269;51.146;16.986;2023-10-09T08:09:51;8.60;99.90
10443;DHT22;5269;51.146;16.986;2023-10-09T08:12:38;8.60;99.90
10443;DHT22;5269;51.146;16.986;2023-10-09T08:15:21;8.60;99.90
10443;DHT22;5269;51.146;16.986;2023-10-09T08:17:54;8.70;99.90
10443;DHT22;5269;51.146;16.986;2023-10-09T08:20:26;8.60;99.90
10443;DHT22;5269;51.146;16.986;2023-10-09T08:22:53;8.60;99.90
10443;DHT22;5269;51.146;16.986;2023-10-09T08:25:21;8.60;99.90
10443;DHT22;5269;51.146;16.986;2023-10-09T08:27:58;8.70;99.90
10443;DHT22;5269;51.146;16.986;2023-10-09T08:30:55;8.80;99.90
10443;DHT22;5269;51.146;16.986;2023-10-09T08:33:45;8.70;99.90
10443;DHT22;5269;51.146;16.986;2023-10-09T08:36:22;8.80;99.90
10443;DHT22;5269;51.146;16.986;2023-10-09T08:38:53;8.90;99.90
10443;DHT22;5269;51.146;16.986;2023-10-09T08:41:24;8.80;99.90
10443;DHT22;5269;51.146;16.986;2023-10-09T08:43:57;8.70;99.90
10443;DHT22;5269;51.146;16.986;2023-10-09T08:46:26;8.70;99.90
10443;DHT22;5269;51.146;16.986;2023-10-09T08:48:56;8.50;99.90
10443;DHT22;5269;51.146;16.986;2023-10-09T08:51:24;8.50;99.90
10443;DHT22;5269;51.146;16.986;2023-10-09T08:53:51;8.70;99.90
10443;DHT22;5269;51.146;16.986;2023-10-09T08:56:20;8.70;99.90
10443;DHT22;5269;51.146;16.986;2023-10-09T08:58:50;8.60;99.90
10443;DHT22;5269;51.146;16.986;2023-10-09T09:01:18;8.60;99.90
10443;DHT22;5269;51.146;16.986;2023-10-09T09:03:47;8.60;99.90
10443;DHT22;5269;51.146;16.986;2023-10-09T09:06:18;8.60;99.90
10443;DHT22;5269;51.146;16.986;2023-10-09T09:08:45;8.70;99.90
10443;DHT22;5269;51.146;16.986;2023-10-09T09:11:14;8.70;99.90
10443;DHT22;5269;51.146;16.986;2023-10-09T09:13:42;8.70;99.90
10443;DHT22;5269;51.146;16.986;2023-10-09T09:16:18;8.60;99.90
10443;DHT22;5269;51.146;16.986;2023-10-09T09:18:56;8.60;99.90
10443;DHT22;5269;51.146;16.986;2023-10-09T09:21:31;8.60;99.90
10443;DHT22;5269;51.146;16.986;2023-10-09T09:24:04;8.70;99.90
10443;DHT22;5269;51.146;16.986;2023-10-09T09:26:42;8.60;99.90
10443;DHT22;5269;51.146;16.986;2023-10-09T09:29:12;8.60;99.90
10443;DHT22;5269;51.146;16.986;2023-10-09T09:31:52;8.60;99.90
10443;DHT22;5269;51.146;16.986;2023-10-09T09:34:19;8.60;99.90
10443;DHT22;5269;51.146;16.986;2023-10-09T09:36:54;8.60;99.90
10443;DHT22;5269;51.146;16.986;2023-10-09T09:39:22;8.60;99.90
10443;DHT22;5269;51.146;16.986;2023-10-09T09:41:55;8.70;99.90
10443;DHT22;5269;51.146;16.986;2023-10-09T09:44:30;8.80;99.90
10443;DHT22;5269;51.146;16.986;2023-10-09T09:46:59;8.80;99.90
10443;DHT22;5269;51.146;16.986;2023-10-09T09:49:27;8.70;99.90
10443;DHT22;5269;51.146;16.986;2023-10-09T09:52:00;8.80;99.90
10443;DHT22;5269;51.146;16.986;2023-10-09T09:54:28;8.90;99.90
10443;DHT22;5269;51.146;16.986;2023-10-09T09:57:00;8.90;99.90
10443;DHT22;5269;51.146;16.986;2023-10-09T09:59:38;9.10;99.90
10443;DHT22;5269;51.146;16.986;2023-10-09T10:02:20;8.90;99.90
10443;DHT22;5269;51.146;16.986;2023-10-09T10:04:53;8.90;99.90
10443;DHT22;5269;51.146;16.986;2023-10-09T10:07:25;8.80;99.90
10443;DHT22;5269;51.146;16.986;2023-10-09T10:09:54;8.80;99.90
10443;DHT22;5269;51.146;16.986;2023-10-09T10:12:56;8.80;99.90
10443;DHT22;5269;51.146;16.986;2023-10-09T10:16:05;8.80;99.90
10443;DHT22;5269;51.146;16.986;2023-10-09T10:18:55;8.70;99.90
10443;DHT22;5269;51.146;16.986;2023-10-09T10:21:36;8.80;99.90
10443;DHT22;5269;51.146;16.986;2023-10-09T10:24:41;8.90;99.90
10443;DHT22;5269;51.146;16.986;2023-10-09T10:27:19;8.90;99.90
10443;DHT22;5269;51.146;16.986;2023-10-09T10:32:56;8.90;99.90
10443;DHT22;5269;51.146;16.986;2023-10-09T10:35:34;9.00;99.90
10443;DHT22;5269;51.146;16.986;2023-10-09T10:38:29;9.10;99.90
10443;DHT22;5269;51.146;16.986;2023-10-09T10:41:15;9.10;99.90
10443;DHT22;5269;51.146;16.986;2023-10-09T10:43:49;9.10;99.90
10443;DHT22;5269;51.146;16.986;2023-10-09T10:46:46;9.00;99.90
10443;DHT22;5269;51.146;16.986;2023-10-09T10:49:18;8.90;99.90
10443;DHT22;5269;51.146;16.986;2023-10-09T10:51:48;8.80;99.90
10443;DHT22;5269;51.146;16.986;2023-10-09T10:54:27;8.90;99.90
10443;DHT22;5269;51.146;16.986;2023-10-09T10:57:20;8.90;99.90
10443;DHT22;5269;51.146;16.986;2023-10-09T11:00:10;9.00;99.90
10443;DHT22;5269;51.146;16.986;2023-10-09T11:03:00;8.80;99.90
10443;DHT22;5269;51.146;16.986;2023-10-09T11:05:41;8.90;99.90
10443;DHT22;5269;51.146;16.986;2023-10-09T11:08:09;8.90;99.90
10443;DHT22;5269;51.146;16.986;2023-10-09T11:10:37;9.00;99.90
10443;DHT22;5269;51.146;16.986;2023-10-09T11:13:22;9.00;99.90
10443;DHT22;5269;51.146;16.986;2023-10-09T11:15:56;9.00;99.90
10443;DHT22;5269;51.146;16.986;2023-10-09T11:18:41;9.10;99.90
10443;DHT22;5269;51.146;16.986;2023-10-09T11:21:15;9.10;99.90
10443;DHT22;5269;51.146;16.986;2023-10-09T11:24:01;9.30;99.90
10443;DHT22;5269;51.146;16.986;2023-10-09T11:26:43;9.40;99.90
10443;DHT22;5269;51.146;16.986;2023-10-09T11:29:21;9.60;99.90
10443;DHT22;5269;51.146;16.986;2023-10-09T11:31:59;9.50;99.90
10443;DHT22;5269;51.146;16.986;2023-10-09T11:34:26;9.60;99.90
10443;DHT22;5269;51.146;16.986;2023-10-09T11:36:58;9.70;99.90
10443;DHT22;5269;51.146;16.986;2023-10-09T11:39:30;9.80;99.90
10443;DHT22;5269;51.146;16.986;2023-10-09T11:42:21;9.80;99.90
10443;DHT22;5269;51.146;16.986;2023-10-09T11:45:03;9.70;99.90
10443;DHT22;5269;51.146;16.986;2023-10-09T11:47:45;9.60;99.90
10443;DHT22;5269;51.146;16.986;2023-10-09T11:50:19;9.50;99.90
10443;DHT22;5269;51.146;16.986;2023-10-09T11:52:56;9.50;99.90
10443;DHT22;5269;51.146;16.986;2023-10-09T11:55:37;9.50;99.90
10443;DHT22;5269;51.146;16.986;2023-10-09T11:58:03;9.50;99.90
10443;DHT22;5269;51.146;16.986;2023-10-09T12:00:34;9.60;99.90
10443;DHT22;5269;51.146;16.986;2023-10-09T12:03:12;9.60;99.90
10443;DHT22;5269;51.146;16.986;2023-10-09T12:05:40;9.60;99.90
10443;DHT22;5269;51.146;16.986;2023-10-09T12:08:10;9.70;99.90
10443;DHT22;5269;51.146;16.986;2023-10-09T12:10:39;9.60;99.90
10443;DHT22;5269;51.146;16.986;2023-10-09T12:13:06;9.60;99.90
10443;DHT22;5269;51.146;16.986;2023-10-09T12:15:35;9.60;99.90
10443;DHT22;5269;51.146;16.986;2023-10-09T12:18:07;9.50;99.90
10443;DHT22;5269;51.146;16.986;2023-10-09T12:20:41;9.60;99.90
10443;DHT22;5269;51.146;16.986;2023-10-09T12:23:11;9.60;99.90
10443;DHT22;5269;51.146;16.986;2023-10-09T12:25:40;9.60;99.90
10443;DHT22;5269;51.146;16.986;2023-10-09T12:28:10;9.50;99.90
10443;DHT22;5269;51.146;16.986;2023-10-09T12:30:40;9.60;99.90
10443;DHT22;5269;51.146;16.986;2023-10-09T12:33:16;9.60;99.90
10443;DHT22;5269;51.146;16.986;2023-10-09T12:35:43;9.80;99.90
10443;DHT22;5269;51.146;16.986;2023-10-09T12:38:13;9.90;99.90
10443;DHT22;5269;51.146;16.986;2023-10-09T12:40:44;9.80;99.90
10443;DHT22;5269;51.146;16.986;2023-10-09T12:43:16;9.90;99.90
10443;DHT22;5269;51.146;16.986;2023-10-09T12:45:46;9.80;99.90
10443;DHT22;5269;51.146;16.986;2023-10-09T12:48:13;9.80;99.90
10443;DHT22;5269;51.146;16.986;2023-10-09T12:50:40;9.90;99.90
10443;DHT22;5269;51.146;16.986;2023-10-09T12:53:10;9.90;99.90
10443;DHT22;5269;51.146;16.986;2023-10-09T12:55:39;9.90;99.90
10443;DHT22;5269;51.146;16.986;2023-10-09T12:58:07;9.90;99.90
10443;DHT22;5269;51.146;16.986;2023-10-09T13:00:35;10.00;99.90
10443;DHT22;5269;51.146;16.986;2023-10-09T13:03:07;10.00;99.90
10443;DHT22;5269;51.146;16.986;2023-10-09T13:05:47;10.10;99.90
10443;DHT22;5269;51.146;16.986;2023-10-09T13:08:22;10.10;99.90
10443;DHT22;5269;51.146;16.986;2023-10-09T13:10:52;10.00;99.90
10443;DHT22;5269;51.146;16.986;2023-10-09T13:13:28;9.90;99.90
10443;DHT22;5269;51.146;16.986;2023-10-09T13:16:09;9.90;99.90
10443;DHT22;5269;51.146;16.986;2023-10-09T13:18:41;9.90;99.90
10443;DHT22;5269;51.146;16.986;2023-10-09T13:21:15;9.90;99.90
10443;DHT22;5269;51.146;16.986;2023-10-09T13:23:42;9.90;99.90
10443;DHT22;5269;51.146;16.986;2023-10-09T13:26:12;9.80;99.90
10443;DHT22;5269;51.146;16.986;2023-10-09T13:28:50;9.90;99.90
10443;DHT22;5269;51.146;16.986;2023-10-09T13:31:20;9.80;99.90
10443;DHT22;5269;51.146;16.986;2023-10-09T13:33:50;9.80;99.90
10443;DHT22;5269;51.146;16.986;2023-10-09T13:36:20;10.00;99.90
10443;DHT22;5269;51.146;16.986;2023-10-09T13:38:53;9.80;99.90
10443;DHT22;5269;51.146;16.986;2023-10-09T13:41:20;10.00;99.90
10443;DHT22;5269;51.146;16.986;2023-10-09T13:43:47;10.10;99.90
10443;DHT22;5269;51.146;16.986;2023-10-09T13:46:19;10.00;99.90
10443;DHT22;5269;51.146;16.986;2023-10-09T13:48:46;10.00;99.90
10443;DHT22;5269;51.146;16.986;2023-10-09T13:51:16;10.00;99.90
10443;DHT22;5269;51.146;16.986;2023-10-09T13:53:44;10.00;99.90
10443;DHT22;5269;51.146;16.986;2023-10-09T13:56:12;10.00;99.90
10443;DHT22;5269;51.146;16.986;2023-10-09T13:58:44;10.10;99.90
10443;DHT22;5269;51.146;16.986;2023-10-09T14:01:11;10.10;99.90
10443;DHT22;5269;51.146;16.986;2023-10-09T14:03:47;10.10;99.90
10443;DHT22;5269;51.146;16.986;2023-10-09T14:06:17;10.10;99.90
10443;DHT22;5269;51.146;16.986;2023-10-09T14:08:56;10.00;99.90
10443;DHT22;5269;51.146;16.986;2023-10-09T14:11:23;10.10;99.90
10443;DHT22;5269;51.146;16.986;2023-10-09T14:13:50;10.10;99.90
10443;DHT22;5269;51.146;16.986;2023-10-09T14:16:17;10.20;99.90
10443;DHT22;5269;51.146;16.986;2023-10-09T14:18:53;10.10;99.90
10443;DHT22;5269;51.146;16.986;2023-10-09T14:21:33;10.10;99.90
10443;DHT22;5269;51.146;16.986;2023-10-09T14:24:24;10.10;99.90
10443;DHT22;5269;51.146;16.986;2023-10-09T14:26:59;10.00;99.90
10443;DHT22;5269;51.146;16.986;2023-10-09T14:29:29;10.00;99.90
10443;DHT22;5269;51.146;16.986;2023-10-09T14:31:56;10.00;99.90
10443;DHT22;5269;51.146;16.986;2023-10-09T14:34:26;9.80;99.90
10443;DHT22;5269;51.146;16.986;2023-10-09T14:36:59;9.80;99.90
10443;DHT22;5269;51.146;16.986;2023-10-09T14:39:27;9.80;99.90
10443;DHT22;5269;51.146;16.986;2023-10-09T14:41:55;9.90;99.90
10443;DHT22;5269;51.146;16.986;2023-10-09T14:44:24;10.10;99.90
10443;DHT22;5269;51.146;16.986;2023-10-09T14:46:54;10.10;99.90
10443;DHT22;5269;51.146;16.986;2023-10-09T14:49:23;10.00;99.90
10443;DHT22;5269;51.146;16.986;2023-10-09T14:52:01;10.10;99.90
10443;DHT22;5269;51.146;16.986;2023-10-09T14:54:28;10.20;99.90
10443;DHT22;5269;51.146;16.986;2023-10-09T14:56:55;9.90;99.90
10443;DHT22;5269;51.146;16.986;2023-10-09T14:59:22;10.00;99.90
10443;DHT22;5269;51.146;16.986;2023-10-09T15:01:49;10.00;99.90
10443;DHT22;5269;51.146;16.986;2023-10-09T15:04:19;9.90;99.90
10443;DHT22;5269;51.146;16.986;2023-10-09T15:06:46;9.90;99.90
10443;DHT22;5269;51.146;16.986;2023-10-09T15:09:16;9.90;99.90
10443;DHT22;5269;51.146;16.986;2023-10-09T15:11:48;9.90;99.90
10443;DHT22;5269;51.146;16.986;2023-10-09T15:14:15;9.80;99.90
10443;DHT22;5269;51.146;16.986;2023-10-09T15:16:44;9.80;99.90
10443;DHT22;5269;51.146;16.986;2023-10-09T15:19:11;9.80;99.90
10443;DHT22;5269;51.146;16.986;2023-10-09T15:21:39;9.60;99.90
10443;DHT22;5269;51.146;16.986;2023-10-09T15:24:09;9.60;99.90
10443;DHT22;5269;51.146;16.986;2023-10-09T15:26:39;9.70;99.90
10443;DHT22;5269;51.146;16.986;2023-10-09T15:29:06;9.60;99.90
10443;DHT22;5269;51.146;16.986;2023-10-09T15:31:35;9.40;99.90
10443;DHT22;5269;51.146;16.986;2023-10-09T15:34:02;9.50;99.90
10443;DHT22;5269;51.146;16.986;2023-10-09T15:36:34;9.60;99.90
10443;DHT22;5269;51.146;16.986;2023-10-09T15:39:02;9.60;99.90
10443;DHT22;5269;51.146;16.986;2023-10-09T15:41:33;9.50;99.90
10443;DHT22;5269;51.146;16.986;2023-10-09T15:44:02;9.60;99.90
10443;DHT22;5269;51.146;16.986;2023-10-09T15:46:31;9.60;99.90
10443;DHT22;5269;51.146;16.986;2023-10-09T15:49:00;9.60;99.90
10443;DHT22;5269;51.146;16.986;2023-10-09T15:51:27;9.50;99.90
10443;DHT22;5269;51.146;16.986;2023-10-09T15:53:55;9.50;99.90
10443;DHT22;5269;51.146;16.986;2023-10-09T15:56:22;9.60;99.90
10443;DHT22;5269;51.146;16.986;2023-10-09T15:58:49;9.60;99.90
10443;DHT22;5269;51.146;16.986;2023-10-09T16:01:20;9.60;99.90
10443;DHT22;5269;51.146;16.986;2023-10-09T16:03:48;9.60;99.90
10443;DHT22;5269;51.146;16.986;2023-10-09T16:06:17;9.60;99.90
10443;DHT22;5269;51.146;16.986;2023-10-09T16:08:45;9.60;99.90
10443;DHT22;5269;51.146;16.986;2023-10-09T16:11:16;9.60;99.90
10443;DHT22;5269;51.146;16.986;2023-10-09T16:13:43;9.50;99.90
10443;DHT22;5269;51.146;16.986;2023-10-09T16:16:10;9.50;99.90
10443;DHT22;5269;51.146;16.986;2023-10-09T16:18:40;9.50;99.90
10443;DHT22;5269;51.146;16.986;2023-10-09T16:21:07;9.50;99.90
10443;DHT22;5269;51.146;16.986;2023-10-09T16:23:38;9.50;99.90
10443;DHT22;5269;51.146;16.986;2023-10-09T16:26:04;9.50;99.90
10443;DHT22;5269;51.146;16.986;2023-10-09T16:28:33;9.50;99.90
10443;DHT22;5269;51.146;16.986;2023-10-09T16:31:00;9.50;99.90
10443;DHT22;5269;51.146;16.986;2023-10-09T16:33:27;9.40;99.90
10443;DHT22;5269;51.146;16.986;2023-10-09T16:35:56;9.40;99.90